Time;durP1;ratioP1;P1;durP2;ratioP2;P2;SDS_P1;SDS_P2;PMS_P1;PMS_P2;Temp;Humidity;BMP_temperature;BMP_pressure;BME280_temperature;BME280_humidity;BME280_pressure;Samples;Min_cycle;Max_cycle;Signal;HPM_P1;HPM_P2
2021/10/26 00:01:57;;;;;;;73.22;22.00;;;;;;;-1.01;71.78;102484.13;1685453;85;21701;-58
2021/10/26 00:05:03;;;;;;;80.07;21.68;;;;;;;-1.05;72.14;102495.92;1685331;85;21284;-58
2021/10/26 00:08:11;;;;;;;87.33;24.72;;;;;;;-1.01;72.53;102489.50;1685371;85;21220;-58
2021/10/26 00:11:18;;;;;;;80.10;28.50;;;;;;;-0.94;72.58;102495.98;1685582;85;21232;-60
2021/10/26 00:14:24;;;;;;;88.92;29.37;;;;;;;-0.88;72.40;102496.23;1685356;85;21280;-59
2021/10/26 00:17:30;;;;;;;83.05;31.97;;;;;;;-0.85;71.98;102485.37;1685523;85;21193;-58
2021/10/26 00:20:35;;;;;;;107.65;32.80;;;;;;;-0.93;71.42;102490.13;1685409;85;21251;-59
2021/10/26 00:23:41;;;;;;;110.30;31.85;;;;;;;-1.01;71.17;102492.19;1685336;85;21231;-59
2021/10/26 00:26:47;;;;;;;83.80;29.25;;;;;;;-1.12;70.99;102498.38;1685360;85;21279;-59
2021/10/26 00:29:52;;;;;;;89.28;30.25;;;;;;;-1.17;71.23;102499.88;1685339;85;21310;-60
2021/10/26 00:32:59;;;;;;;79.65;26.27;;;;;;;-1.21;71.17;102502.72;1685329;85;21236;-58
2021/10/26 00:36:05;;;;;;;84.95;27.30;;;;;;;-1.30;71.28;102499.00;1685417;85;21268;-58
2021/10/26 00:39:12;;;;;;;80.77;28.00;;;;;;;-1.36;71.55;102489.80;1685553;85;21311;-58
2021/10/26 00:42:17;;;;;;;93.67;30.85;;;;;;;-1.38;71.68;102495.67;1685327;85;21192;-59
2021/10/26 00:45:22;;;;;;;89.28;29.92;;;;;;;-1.44;71.68;102487.83;1685434;85;21235;-58
2021/10/26 00:48:27;;;;;;;99.87;31.57;;;;;;;-1.40;71.92;102481.41;1685297;85;21271;-58
2021/10/26 00:51:34;;;;;;;91.05;30.55;;;;;;;-1.34;71.93;102484.78;1685425;85;21263;-60
2021/10/26 00:54:40;;;;;;;95.05;30.35;;;;;;;-1.37;71.71;102480.85;1685319;85;21236;-58
2021/10/26 00:57:47;;;;;;;95.60;31.12;;;;;;;-1.34;71.83;102482.55;1672873;84;21343;-59
2021/10/26 01:00:53;;;;;;;83.33;29.82;;;;;;;-1.31;71.76;102477.07;1687833;82;21219;-59
2021/10/26 01:04:01;;;;;;;109.30;36.48;;;;;;;-1.35;71.45;102478.11;1692780;85;21236;-59
2021/10/26 01:07:09;;;;;;;123.18;41.98;;;;;;;-1.40;71.36;102481.41;1692745;85;21541;-60
2021/10/26 01:10:17;;;;;;;129.38;48.05;;;;;;;-1.44;71.45;102483.31;1692834;85;21318;-60
2021/10/26 01:13:23;;;;;;;172.53;67.78;;;;;;;-1.38;71.75;102482.25;1692751;85;21209;-60
2021/10/26 01:16:30;;;;;;;172.22;61.60;;;;;;;-1.32;71.62;102483.39;1692818;85;21216;-59
2021/10/26 01:19:49;;;;;;;153.82;58.65;;;;;;;-1.30;71.53;102482.88;1692750;85;21227;-59
2021/10/26 01:22:56;;;;;;;142.60;54.15;;;;;;;-1.28;71.38;102472.48;1692712;85;21216;-59
2021/10/26 01:26:01;;;;;;;140.95;54.67;;;;;;;-1.27;71.14;102477.41;1692728;85;21296;-59
2021/10/26 01:29:07;;;;;;;119.72;48.28;;;;;;;-1.31;71.17;102467.22;1692884;85;21215;-58
2021/10/26 01:32:13;;;;;;;113.90;46.02;;;;;;;-1.29;71.30;102462.69;1692775;85;21227;-59
2021/10/26 01:35:20;;;;;;;114.40;45.67;;;;;;;-1.25;71.23;102464.81;1692738;85;21235;-60
2021/10/26 01:38:25;;;;;;;104.32;41.65;;;;;;;-1.25;71.00;102462.12;1692754;85;21188;-61
2021/10/26 01:41:31;;;;;;;89.55;38.33;;;;;;;-1.31;70.68;102462.30;1692730;85;21195;-60
2021/10/26 01:44:37;;;;;;;99.13;40.43;;;;;;;-1.42;70.64;102465.34;1692728;85;21251;-59
2021/10/26 01:47:45;;;;;;;86.42;36.03;;;;;;;-1.47;70.72;102463.27;1629081;87;21203;-58
2021/10/26 01:50:50;;;;;;;84.13;30.05;;;;;;;-1.54;70.74;102463.92;1692839;84;21248;-59
2021/10/26 01:53:57;;;;;;;79.72;29.37;;;;;;;-1.63;70.95;102456.16;1692699;85;21271;-60
2021/10/26 01:57:02;;;;;;;77.35;31.37;;;;;;;-1.70;71.07;102459.09;1692728;85;21231;-60
2021/10/26 02:00:18;;;;;;;84.67;33.00;;;;;;;-1.80;71.19;102450.91;1692801;85;21212;-58
2021/10/26 02:03:23;;;;;;;82.90;30.15;;;;;;;-1.86;71.67;102453.33;1666443;83;21308;-59
2021/10/26 02:06:28;;;;;;;83.60;32.35;;;;;;;-1.82;71.80;102452.30;1661514;85;21225;-59
2021/10/26 02:09:34;;;;;;;95.90;36.48;;;;;;;-1.87;71.83;102452.89;1675849;85;21888;-58
2021/10/26 02:12:40;;;;;;;98.62;32.83;;;;;;;-1.83;71.90;102446.98;1675823;85;21363;-58
2021/10/26 02:15:45;;;;;;;102.80;33.20;;;;;;;-1.84;71.74;102443.41;1661807;85;21193;-57
2021/10/26 02:18:52;;;;;;;90.92;29.55;;;;;;;-1.82;71.76;102440.22;1675836;85;21386;-59
2021/10/26 02:21:57;;;;;;;86.05;29.65;;;;;;;-1.78;71.66;102444.58;1675835;85;21348;-59
2021/10/26 02:25:03;;;;;;;82.78;30.65;;;;;;;-1.79;71.51;102446.83;1675782;85;21367;-58
2021/10/26 02:28:08;;;;;;;68.80;30.37;;;;;;;-1.86;71.47;102439.91;1675866;85;22083;-59
2021/10/26 02:31:16;;;;;;;91.42;32.08;;;;;;;-1.86;71.68;102442.59;1675878;85;21335;-59
2021/10/26 02:34:24;;;;;;;63.73;27.58;;;;;;;-1.85;71.84;102440.31;1675849;85;21269;-60
2021/10/26 02:37:30;;;;;;;85.28;29.20;;;;;;;-1.86;71.73;102442.59;1675833;85;21422;-58
2021/10/26 02:40:36;;;;;;;83.78;29.12;;;;;;;-1.90;71.84;102446.28;1675850;85;21336;-59
2021/10/26 02:43:43;;;;;;;73.60;29.35;;;;;;;-1.85;72.15;102436.74;1675827;85;21374;-58
2021/10/26 02:46:48;;;;;;;78.10;29.15;;;;;;;-1.79;72.06;102440.12;1675806;85;21359;-59
2021/10/26 02:49:54;;;;;;;61.23;24.15;;;;;;;-1.74;71.84;102438.17;1675833;85;21363;-59
2021/10/26 02:53:00;;;;;;;61.35;22.55;;;;;;;-1.77;71.62;102443.64;1675791;85;21411;-59
2021/10/26 02:56:05;;;;;;;63.70;26.07;;;;;;;-1.81;71.88;102443.79;1675841;85;21339;-58
2021/10/26 02:59:11;;;;;;;69.95;25.25;;;;;;;-1.88;71.92;102444.44;1675902;85;21458;-59
2021/10/26 03:02:16;;;;;;;81.40;27.67;;;;;;;-1.86;72.24;102451.98;1675897;85;21336;-60
2021/10/26 03:05:22;;;;;;;71.30;26.70;;;;;;;-1.81;72.16;102445.12;1684982;84;21200;-59
2021/10/26 03:08:29;;;;;;;71.45;28.00;;;;;;;-1.76;72.08;102448.56;1685321;85;21287;-58
2021/10/26 03:11:37;;;;;;;68.95;28.87;;;;;;;-1.76;71.92;102441.36;1685362;85;21197;-60
2021/10/26 03:14:44;;;;;;;70.47;27.93;;;;;;;-1.79;71.92;102436.55;1685451;85;21239;-61
2021/10/26 03:17:50;;;;;;;70.25;26.17;;;;;;;-1.75;72.05;102437.77;1685372;85;21192;-61
2021/10/26 03:20:58;;;;;;;71.85;25.80;;;;;;;-1.71;72.03;102438.08;1685466;85;21196;-61
2021/10/26 03:24:04;;;;;;;62.05;24.18;;;;;;;-1.66;71.95;102425.39;1685408;85;21255;-61
2021/10/26 03:27:10;;;;;;;73.60;23.90;;;;;;;-1.62;71.91;102433.75;1685405;85;21279;-61
2021/10/26 03:30:19;;;;;;;56.65;23.32;;;;;;;-1.60;71.75;102437.27;1685390;85;21228;-61
2021/10/26 03:33:26;;;;;;;65.70;22.30;;;;;;;-1.60;71.57;102433.24;1685348;85;21207;-60
2021/10/26 03:36:33;;;;;;;59.42;23.07;;;;;;;-1.67;71.30;102438.86;1685387;85;21193;-61
2021/10/26 03:39:44;;;;;;;60.03;23.15;;;;;;;-1.77;71.41;102434.25;1685438;85;21737;-61
2021/10/26 03:42:50;;;;;;;69.15;24.27;;;;;;;-1.76;71.67;102433.30;1685468;85;21276;-60
2021/10/26 03:45:55;;;;;;;72.25;26.57;;;;;;;-1.73;71.70;102431.87;1685394;85;21240;-61
2021/10/26 03:49:01;;;;;;;70.80;27.05;;;;;;;-1.72;71.54;102429.62;1685321;85;21248;-61
2021/10/26 03:52:07;;;;;;;87.33;29.57;;;;;;;-1.75;71.35;102431.06;1685475;85;21252;-61
2021/10/26 03:55:13;;;;;;;76.97;30.20;;;;;;;-1.79;71.21;102421.33;1685319;85;21316;-61
2021/10/26 03:58:22;;;;;;;90.12;32.48;;;;;;;-1.86;71.11;102419.78;1653943;85;21251;-61
2021/10/26 04:01:30;;;;;;;80.72;30.48;;;;;;;-1.89;71.13;102421.67;1685055;85;21299;-62
2021/10/26 04:04:39;;;;;;;87.12;31.62;;;;;;;-1.88;71.32;102420.28;1688334;80;21216;-61
2021/10/26 04:07:59;;;;;;;84.85;31.93;;;;;;;-1.82;71.49;102416.06;1692380;85;21223;-59
2021/10/26 04:11:11;;;;;;;86.72;30.50;;;;;;;-1.78;71.42;102421.77;1676448;85;21250;-61
2021/10/26 04:14:13;;;;;;;65.42;30.05;;;;;;;-1.76;71.36;102417.20;1692435;85;21271;-60
2021/10/26 04:17:20;;;;;;;71.77;27.52;;;;;;;-1.76;71.29;102420.37;1692825;85;21200;-60
2021/10/26 04:20:27;;;;;;;75.20;30.70;;;;;;;-1.76;71.12;102415.86;1692892;85;21849;-61
2021/10/26 04:23:34;;;;;;;82.22;30.80;;;;;;;-1.80;71.01;102419.58;1691419;85;21390;-61
2021/10/26 04:26:41;;;;;;;81.32;28.47;;;;;;;-1.87;71.00;102414.47;1677207;85;21215;-61
2021/10/26 04:29:46;;;;;;;75.67;29.65;;;;;;;-1.90;71.23;102415.88;1675906;84;21223;-61
2021/10/26 04:32:53;;;;;;;79.12;31.50;;;;;;;-1.83;71.60;102417.00;1677075;84;21343;-61
2021/10/26 04:35:58;;;;;;;84.60;33.75;;;;;;;-1.73;71.69;102416.25;1711150;84;21318;-60
2021/10/26 04:39:04;;;;;;;85.07;35.20;;;;;;;-1.72;71.36;102415.30;1695898;83;21391;-61
2021/10/26 04:42:12;;;;;;;85.12;33.88;;;;;;;-1.80;71.26;102412.87;1686814;84;21918;-61
2021/10/26 04:45:18;;;;;;;68.67;27.50;;;;;;;-1.83;71.47;102416.11;1660804;84;21248;-60
2021/10/26 04:48:25;;;;;;;75.80;32.48;;;;;;;-1.88;71.46;102425.66;1710502;82;21344;-60
2021/10/26 04:51:31;;;;;;;87.70;32.15;;;;;;;-1.93;71.78;102424.02;1707864;83;21200;-61
2021/10/26 04:54:36;;;;;;;77.08;32.40;;;;;;;-1.92;72.17;102421.28;1702802;82;21207;-61
2021/10/26 04:57:43;;;;;;;94.97;35.68;;;;;;;-1.82;72.37;102433.50;1675188;84;22130;-60
2021/10/26 05:00:49;;;;;;;105.95;39.90;;;;;;;-1.71;72.15;102434.05;1675100;85;21634;-60
2021/10/26 05:03:57;;;;;;;96.90;42.55;;;;;;;-1.72;71.83;102430.07;1700747;82;22131;-61
2021/10/26 05:07:03;;;;;;;107.22;46.20;;;;;;;-1.68;71.98;102437.97;1706681;80;21223;-61
2021/10/26 05:10:08;;;;;;;102.62;44.00;;;;;;;-1.60;72.01;102438.61;1701153;83;21767;-62
2021/10/26 05:13:16;;;;;;;112.32;49.35;;;;;;;-1.54;71.76;102426.81;1698154;84;21184;-59
2021/10/26 05:16:34;;;;;;;117.13;49.95;;;;;;;-1.47;71.84;102437.75;1690537;84;22024;-60
2021/10/26 05:19:59;;;;;;;119.77;45.90;;;;;;;-1.37;71.87;102439.67;1687428;83;21753;-59
2021/10/26 05:23:23;;;;;;;129.68;49.83;;;;;;;-1.24;72.00;102447.75;1694888;84;21352;-60
2021/10/26 05:26:44;;;;;;;119.40;47.88;;;;;;;-1.09;71.94;102450.80;1685827;84;21601;-59
2021/10/26 05:29:50;;;;;;;106.67;45.35;;;;;;;-0.99;71.57;102446.87;1711366;83;21295;-60
2021/10/26 05:32:58;;;;;;;106.78;42.03;;;;;;;-0.90;71.44;102452.38;1709054;82;21250;-60
2021/10/26 05:36:03;;;;;;;113.15;43.70;;;;;;;-0.82;71.33;102451.66;1710305;83;21812;-59
2021/10/26 05:39:08;;;;;;;107.95;41.08;;;;;;;-0.73;71.27;102460.77;1710491;82;21733;-59
2021/10/26 05:42:14;;;;;;;108.32;39.98;;;;;;;-0.61;71.23;102463.89;1710961;83;21459;-60
2021/10/26 05:45:20;;;;;;;79.55;35.05;;;;;;;-0.48;71.08;102457.16;1702835;83;21338;-59
2021/10/26 05:48:25;;;;;;;83.12;35.23;;;;;;;-0.35;70.84;102466.51;1711069;83;21620;-60
2021/10/26 05:51:30;;;;;;;87.12;34.88;;;;;;;-0.23;70.71;102462.50;1699687;83;21436;-60
2021/10/26 05:54:36;;;;;;;77.50;35.65;;;;;;;-0.11;70.48;102457.53;1693480;83;21195;-60
2021/10/26 05:57:41;;;;;;;97.80;43.78;;;;;;;0.03;70.24;102459.72;1690615;84;21185;-61
2021/10/26 06:00:47;;;;;;;79.25;36.83;;;;;;;0.14;70.04;102463.34;1697350;84;21184;-60
2021/10/26 06:03:55;;;;;;;68.95;32.35;;;;;;;0.28;69.84;102469.95;1698006;83;21769;-61
2021/10/26 06:07:01;;;;;;;72.20;32.33;;;;;;;0.41;69.59;102468.54;1695208;81;21216;-60
2021/10/26 06:10:07;;;;;;;69.58;29.75;;;;;;;0.54;69.27;102471.13;1693442;84;21378;-60
2021/10/26 06:13:37;;;;;;;61.23;26.87;;;;;;;0.66;69.08;102467.07;1650294;85;21249;-60
2021/10/26 06:16:27;;;;;;;58.95;28.80;;;;;;;0.78;68.78;102477.34;1707378;83;21240;-60
2021/10/26 06:19:33;;;;;;;65.15;26.50;;;;;;;0.92;68.58;102481.23;1655290;85;21284;-62
2021/10/26 06:22:38;;;;;;;62.75;27.42;;;;;;;1.05;68.40;102470.80;1715071;82;21219;-60
2021/10/26 06:25:43;;;;;;;67.05;29.10;;;;;;;1.18;68.26;102471.59;1656006;85;21370;-60
2021/10/26 06:29:07;;;;;;;69.42;28.52;;;;;;;1.29;68.10;102466.61;1717589;83;21239;-61
2021/10/26 06:32:29;;;;;;;;;;;;;;;1.42;68.03;102464.25;1648192;86;21264;-60
2021/10/26 06:35:54;;;;;;;53.75;24.95;;;;;;;1.65;67.94;102463.24;1856335;76;22233;-60
2021/10/26 06:38:59;;;;;;;59.88;25.97;;;;;;;1.70;67.89;102467.97;1775109;79;21335;-62
2021/10/26 06:42:05;;;;;;;69.45;32.08;;;;;;;1.80;67.81;102465.23;1770978;80;21991;-60
2021/10/26 06:45:27;;;;;;;65.28;32.20;;;;;;;1.94;67.75;102465.48;1771200;80;21166;-61
2021/10/26 06:48:54;;;;;;;74.95;36.58;;;;;;;2.07;67.78;102462.62;1695327;84;21307;-61
2021/10/26 06:52:16;;;;;;;71.50;31.25;;;;;;;2.21;67.71;102456.98;1674083;84;21252;-61
2021/10/26 06:55:39;;;;;;;67.62;31.07;;;;;;;2.35;67.66;102457.67;1742388;81;21192;-61
2021/10/26 06:58:54;;;;;;;56.45;27.80;;;;;;;2.50;67.74;102455.14;1757614;80;21208;-61
2021/10/26 07:02:17;;;;;;;52.03;29.02;;;;;;;2.65;67.85;102458.43;1766793;80;21916;-64
2021/10/26 07:05:31;;;;;;;62.73;27.10;;;;;;;2.81;67.93;102456.73;1746096;81;21457;-62
2021/10/26 07:08:57;;;;;;;55.15;28.05;;;;;;;2.97;67.97;102448.72;1748346;80;21214;-61
2021/10/26 07:12:05;;;;;;;52.45;27.35;;;;;;;3.14;68.07;102447.37;1697397;82;21230;-62
2021/10/26 07:15:14;;;;;;;57.30;25.60;;;;;;;3.30;67.99;102445.64;1709306;83;21201;-62
2021/10/26 07:18:22;;;;;;;48.75;24.80;;;;;;;3.46;67.99;102447.95;1706018;83;21741;-61
2021/10/26 07:21:29;;;;;;;55.95;28.85;;;;;;;3.63;67.72;102440.31;1723621;82;21339;-62
2021/10/26 12:52:22;;;;;;;18.48;12.55;;;;;;;12.52;35.91;102091.31;1857112;76;22613;-54
2021/10/26 12:55:49;;;;;;;21.85;14.00;;;;;;;12.47;35.85;102091.76;1736002;82;21696;-54
2021/10/26 12:59:18;;;;;;;20.30;15.23;;;;;;;12.44;35.89;102094.80;1766055;80;21252;-55
2021/10/26 13:02:25;;;;;;;18.07;14.10;;;;;;;12.43;35.88;102088.08;1769873;80;21248;-54
2021/10/26 13:05:30;;;;;;;17.70;11.83;;;;;;;12.39;35.94;102090.25;1708793;80;21212;-53
2021/10/26 13:08:35;;;;;;;20.05;12.65;;;;;;;12.35;36.18;102086.08;1736567;81;21251;-53
2021/10/26 13:11:47;;;;;;;14.68;9.80;;;;;;;12.28;36.47;102079.91;1729484;83;21220;-56
2021/10/26 13:14:57;;;;;;;15.08;9.90;;;;;;;12.27;36.59;102083.19;1741232;81;21805;-53
2021/10/26 13:18:12;;;;;;;14.98;9.93;;;;;;;12.18;36.46;102074.95;1768818;80;21177;-54
2021/10/26 13:21:25;;;;;;;18.62;10.65;;;;;;;12.14;36.58;102075.73;1740270;81;21243;-55
2021/10/26 13:24:31;;;;;;;16.35;10.93;;;;;;;12.13;36.82;102073.14;1766301;81;21870;-55
2021/10/26 13:27:37;;;;;;;14.85;9.43;;;;;;;12.07;36.68;102069.61;1759876;81;21307;-55
2021/10/26 13:31:01;;;;;;;21.20;8.63;;;;;;;12.01;36.84;102065.55;1770759;80;21784;-54
2021/10/26 13:34:08;;;;;;;14.83;9.28;;;;;;;11.92;37.01;102057.66;1740570;82;21337;-54
2021/10/26 13:37:14;;;;;;;17.17;10.90;;;;;;;11.86;37.29;102060.98;1741121;82;21236;-57
2021/10/26 13:40:19;;;;;;;15.53;10.20;;;;;;;11.83;37.51;102061.27;1756116;81;21243;-54
2021/10/26 13:43:26;;;;;;;15.53;8.78;;;;;;;11.74;37.77;102062.13;1770176;80;21382;-54
2021/10/26 13:46:33;;;;;;;13.80;8.25;;;;;;;11.62;37.82;102053.62;1771956;80;21355;-54
2021/10/26 13:49:38;;;;;;;17.98;9.60;;;;;;;11.48;38.12;102058.67;1742721;80;21362;-54
2021/10/26 13:52:46;;;;;;;15.30;9.28;;;;;;;11.35;38.45;102052.56;1759957;80;21971;-54
2021/10/26 13:55:56;;;;;;;12.60;9.33;;;;;;;11.25;38.42;102044.80;1766032;80;21761;-54
2021/10/26 13:59:01;;;;;;;18.27;9.85;;;;;;;11.19;38.71;102045.37;1764880;80;21776;-56
2021/10/26 14:02:07;;;;;;;18.87;10.00;;;;;;;11.14;38.96;102047.66;1752345;80;21177;-54
2021/10/26 14:05:14;;;;;;;16.48;10.23;;;;;;;11.07;39.19;102046.49;1761094;81;21219;-55
2021/10/26 14:08:20;;;;;;;19.37;11.33;;;;;;;10.97;39.47;102049.69;1765405;80;21192;-55
2021/10/26 14:11:25;;;;;;;22.95;12.73;;;;;;;10.83;39.87;102042.69;1766033;80;21189;-54
2021/10/26 14:14:30;;;;;;;21.62;13.93;;;;;;;10.70;40.01;102037.96;1761432;81;21617;-54
2021/10/26 14:17:36;;;;;;;23.87;14.90;;;;;;;10.58;40.41;102042.30;1767992;80;21185;-54
2021/10/26 14:20:44;;;;;;;23.35;15.05;;;;;;;10.43;40.72;102048.09;1761400;81;21558;-54
2021/10/26 14:23:49;;;;;;;31.75;16.30;;;;;;;10.28;41.10;102037.61;1760575;81;21733;-54
2021/10/26 14:26:56;;;;;;;27.32;16.52;;;;;;;10.09;41.52;102036.98;1747617;81;21185;-54
2021/10/26 14:30:00;;;;;;;34.90;16.30;;;;;;;9.89;41.90;102041.91;1735987;81;21206;-54
2021/10/26 14:33:06;;;;;;;37.83;17.90;;;;;;;9.68;42.19;102036.01;1737269;82;21264;-56
2021/10/26 14:36:20;;;;;;;41.60;17.90;;;;;;;9.45;42.59;102039.30;1765789;81;21201;-53
2021/10/26 14:39:28;;;;;;;41.55;17.98;;;;;;;9.25;43.23;102037.37;1750232;81;21741;-54
2021/10/26 14:58:59;;;;;;;46.98;24.52;;;;;;;8.25;45.28;102036.97;1762404;80;21515;-55
2021/10/26 15:02:06;;;;;;;49.13;25.75;;;;;;;8.09;45.66;102037.77;1770204;80;21239;-55
2021/10/26 15:05:13;;;;;;;57.15;29.48;;;;;;;7.96;46.02;102037.00;1767605;80;22054;-55
2021/10/26 15:08:22;;;;;;;61.83;27.82;;;;;;;7.83;46.43;102037.56;1764816;80;21185;-55
2021/10/26 15:11:32;;;;;;;56.33;28.87;;;;;;;7.70;46.77;102045.81;1766264;80;22089;-55
2021/10/26 15:14:37;;;;;;;49.38;27.13;;;;;;;7.56;47.20;102052.81;1771746;80;21331;-54
2021/10/26 15:17:44;;;;;;;41.33;24.30;;;;;;;7.41;47.46;102055.31;1770626;80;21192;-54
2021/10/26 15:20:51;;;;;;;36.55;23.27;;;;;;;7.28;47.77;102053.12;1759717;81;21190;-55
2021/10/26 15:33:57;;;;;;;40.33;24.40;;;;;;;6.80;49.14;102060.30;1741767;82;21355;-54
2021/10/26 15:37:03;;;;;;;39.92;25.40;;;;;;;6.68;49.32;102058.48;1749920;81;21205;-53
2021/10/26 15:40:09;;;;;;;46.18;26.30;;;;;;;6.60;49.66;102065.44;1762106;81;21555;-53
2021/10/26 15:43:16;;;;;;;50.20;29.02;;;;;;;6.51;50.17;102071.55;1741546;82;21355;-54
2021/10/26 15:46:22;;;;;;;70.17;37.55;;;;;;;6.40;50.51;102067.36;1741145;82;21243;-54
2021/10/26 15:49:29;;;;;;;161.75;84.72;;;;;;;6.30;50.80;102072.56;1741761;82;21426;-53
2021/10/26 15:52:35;;;;;;;120.95;62.15;;;;;;;6.22;50.96;102074.07;1742329;82;21370;-54
2021/10/26 15:55:41;;;;;;;218.12;106.75;;;;;;;6.14;51.35;102071.89;1743623;81;21211;-53
2021/10/26 15:58:47;;;;;;;235.88;113.32;;;;;;;6.02;51.61;102064.59;1771636;80;21379;-53
2021/10/26 16:01:57;;;;;;;171.18;84.60;;;;;;;5.90;51.81;102070.86;1759823;80;21192;-55
2021/10/26 16:05:06;;;;;;;135.50;68.60;;;;;;;5.78;52.08;102068.95;1756948;81;21225;-53
2021/10/26 16:08:21;;;;;;;153.93;64.60;;;;;;;5.66;52.35;102060.30;1755174;81;21237;-54
2021/10/26 16:11:33;;;;;;;128.05;64.77;;;;;;;5.55;52.72;102062.34;1740371;82;21232;-53
2021/10/26 16:14:41;;;;;;;129.85;63.92;;;;;;;5.45;53.33;102061.24;1741726;82;21251;-53
2021/10/26 16:17:48;;;;;;;131.15;69.15;;;;;;;5.36;53.74;102056.41;1740101;82;21197;-55
2021/10/26 16:20:54;;;;;;;138.43;69.62;;;;;;;5.30;54.10;102062.72;1725400;82;21666;-54
2021/10/26 16:24:02;;;;;;;135.48;71.75;;;;;;;5.21;54.33;102056.55;1739469;82;21200;-55
2021/10/26 16:27:08;;;;;;;376.73;150.78;;;;;;;5.16;54.47;102065.48;1741611;81;21179;-54
2021/10/26 16:30:16;;;;;;;420.88;165.18;;;;;;;5.11;54.73;102057.64;1748101;81;21197;-54
2021/10/26 16:33:22;;;;;;;250.28;107.03;;;;;;;5.09;54.90;102066.87;1763345;81;21209;-55
2021/10/26 16:36:31;;;;;;;303.10;121.17;;;;;;;5.05;55.23;102066.19;1751839;81;21192;-55
2021/10/26 16:39:36;;;;;;;196.98;91.30;;;;;;;4.98;55.35;102068.05;1746123;81;21233;-54
2021/10/26 16:42:54;;;;;;;232.75;101.45;;;;;;;4.88;55.40;102065.53;1744425;81;21775;-54
2021/10/26 16:49:09;;;;;;;231.55;99.95;;;;;;;4.73;56.07;102061.07;1759257;80;21256;-53
2021/10/26 16:52:15;;;;;;;294.65;121.22;;;;;;;4.66;56.38;102064.69;1770157;80;21784;-54
2021/10/26 16:55:20;;;;;;;285.88;115.03;;;;;;;4.59;56.59;102056.06;1762558;81;21184;-53
2021/10/26 16:58:27;;;;;;;232.27;102.40;;;;;;;4.53;56.78;102064.56;1740497;82;21252;-54
2021/10/26 17:01:34;;;;;;;227.28;98.45;;;;;;;4.47;56.89;102066.81;1739914;82;21287;-54
2021/10/26 17:04:42;;;;;;;224.18;95.77;;;;;;;4.43;57.21;102062.53;1738991;82;21224;-55
2021/10/26 17:07:48;;;;;;;212.95;93.62;;;;;;;4.38;57.53;102058.76;1738915;81;21237;-56
2021/10/26 17:11:03;;;;;;;211.87;90.47;;;;;;;4.33;57.80;102058.17;1745528;81;21233;-54
2021/10/26 17:14:02;;;;;;;204.65;87.35;;;;;;;4.29;57.92;102055.27;1761249;81;21212;-54
2021/10/26 17:17:09;;;;;;;179.85;81.15;;;;;;;4.25;58.01;102056.92;1761232;81;21204;-55
2021/10/26 17:20:16;;;;;;;161.92;73.92;;;;;;;4.20;58.17;102051.75;1761709;81;21898;-55
2021/10/26 17:23:22;;;;;;;154.97;73.52;;;;;;;4.15;58.33;102051.19;1759001;81;21343;-54
2021/10/26 17:26:28;;;;;;;155.95;72.47;;;;;;;4.11;58.53;102049.63;1770639;80;21213;-54
2021/10/26 17:29:35;;;;;;;162.97;73.72;;;;;;;4.08;58.56;102050.28;1769897;81;21205;-53
2021/10/26 17:32:41;;;;;;;141.37;72.42;;;;;;;4.06;58.66;102051.73;1735580;82;21378;-54
2021/10/26 17:35:51;;;;;;;159.05;79.82;;;;;;;4.03;58.79;102047.86;1717617;83;21638;-55
2021/10/26 17:38:58;;;;;;;224.30;110.50;;;;;;;4.01;58.96;102050.28;1767106;81;21232;-53
2021/10/26 17:42:06;;;;;;;214.02;100.87;;;;;;;3.98;59.03;102049.97;1771020;81;21197;-53
2021/10/26 17:45:17;;;;;;;241.70;111.03;;;;;;;3.93;59.08;102043.95;1771459;81;21827;-54
2021/10/26 17:48:27;;;;;;;224.90;100.95;;;;;;;3.90;59.13;102040.59;1771427;81;21201;-55
2021/10/26 17:51:34;;;;;;;229.32;107.60;;;;;;;3.87;59.19;102044.34;1772481;79;21335;-55
2021/10/26 17:54:49;;;;;;;241.63;107.03;;;;;;;3.83;59.43;102046.86;1707949;82;21439;-54
2021/10/26 17:58:05;;;;;;;234.25;104.85;;;;;;;3.75;59.61;102047.80;1711706;82;21265;-54
2021/10/26 18:01:12;;;;;;;232.15;110.30;;;;;;;3.66;59.73;102038.88;1712383;82;21265;-54
2021/10/26 18:04:17;;;;;;;232.95;105.30;;;;;;;3.59;59.96;102046.08;1695266;84;21178;-54
2021/10/26 18:07:23;;;;;;;226.50;100.80;;;;;;;3.52;60.07;102045.56;1696306;84;21203;-55
2021/10/26 18:10:33;;;;;;;213.75;98.82;;;;;;;3.45;60.23;102045.55;1695665;84;21359;-55
2021/10/26 18:13:39;;;;;;;201.58;94.80;;;;;;;3.39;60.30;102037.80;1696338;84;21233;-54
2021/10/26 18:16:49;;;;;;;202.93;95.20;;;;;;;3.33;60.46;102053.02;1696657;84;21197;-57
2021/10/26 18:19:59;;;;;;;198.23;96.65;;;;;;;3.26;60.70;102045.35;1696657;84;21367;-54
2021/10/26 18:23:04;;;;;;;237.02;106.32;;;;;;;3.18;60.95;102037.69;1696601;84;21868;-54
2021/10/26 18:26:10;;;;;;;228.40;102.55;;;;;;;3.11;61.33;102033.57;1696634;84;21439;-55
2021/10/26 18:29:16;;;;;;;237.75;107.43;;;;;;;3.05;61.58;102041.58;1696692;84;21218;-55
2021/10/26 18:32:21;;;;;;;246.32;112.75;;;;;;;3.00;61.87;102045.02;1696912;84;21207;-54
2021/10/26 18:35:29;;;;;;;221.25;100.92;;;;;;;2.95;62.00;102044.88;1696784;84;21888;-54
2021/10/26 18:38:38;;;;;;;204.13;94.72;;;;;;;2.93;62.15;102043.61;1675235;84;21845;-54
2021/10/26 18:41:49;;;;;;;185.75;83.45;;;;;;;2.91;62.28;102044.67;1696571;84;21367;-55
2021/10/26 18:45:03;;;;;;;173.13;80.25;;;;;;;2.89;62.43;102043.87;1697070;84;21395;-55
2021/10/26 18:48:10;;;;;;;164.23;72.80;;;;;;;2.84;62.50;102038.73;1697337;84;21375;-54
2021/10/26 18:51:15;;;;;;;153.00;71.50;;;;;;;2.84;62.63;102043.25;1696701;84;21240;-55
2021/10/26 18:54:21;;;;;;;138.30;62.50;;;;;;;2.81;62.75;102044.31;1696621;84;21367;-53
2021/10/26 18:57:30;;;;;;;131.52;57.75;;;;;;;2.83;62.84;102048.28;1696291;83;21399;-55
2021/10/26 19:00:36;;;;;;;129.82;58.40;;;;;;;2.81;62.84;102050.19;1696761;84;21285;-54
2021/10/26 19:03:45;;;;;;;114.50;57.53;;;;;;;2.80;62.81;102047.11;1696940;84;21444;-54
2021/10/26 19:06:57;;;;;;;132.27;59.65;;;;;;;2.77;62.79;102041.88;1696875;83;21201;-54
2021/10/26 19:10:01;;;;;;;135.70;62.75;;;;;;;2.76;62.77;102038.75;1697323;84;21218;-54
2021/10/26 19:13:09;;;;;;;128.75;57.05;;;;;;;2.72;62.80;102043.95;1697491;84;21336;-54
2021/10/26 19:16:20;;;;;;;229.93;90.85;;;;;;;2.68;62.88;102044.59;1697295;84;21209;-54
2021/10/26 19:19:27;;;;;;;241.05;99.25;;;;;;;2.67;62.97;102046.03;1697376;84;21182;-54
2021/10/26 19:22:36;;;;;;;365.05;139.10;;;;;;;2.64;63.04;102046.21;1697414;84;21371;-54
2021/10/26 19:25:44;;;;;;;354.40;136.30;;;;;;;2.60;63.08;102045.50;1697228;84;21356;-54
2021/10/26 19:28:52;;;;;;;331.60;131.57;;;;;;;2.58;63.14;102043.38;1697174;84;21230;-54
2021/10/26 19:31:59;;;;;;;312.98;122.20;;;;;;;2.57;63.19;102042.12;1697254;84;21332;-55
2021/10/26 19:35:05;;;;;;;285.50;111.10;;;;;;;2.57;63.35;102043.47;1697262;84;21352;-54
2021/10/26 19:38:12;;;;;;;258.43;106.85;;;;;;;2.55;63.42;102042.17;1697414;84;21355;-55
2021/10/26 19:41:19;;;;;;;225.50;96.78;;;;;;;2.57;63.49;102048.88;1697250;84;21295;-55
2021/10/26 19:44:24;;;;;;;178.80;72.47;;;;;;;2.56;63.49;102045.29;1697632;84;21230;-55
2021/10/26 19:47:30;;;;;;;161.07;68.02;;;;;;;2.57;63.43;102047.52;1697362;84;21905;-54
2021/10/26 19:50:37;;;;;;;122.85;54.55;;;;;;;2.56;63.36;102045.76;1697311;84;21237;-53
2021/10/26 19:53:45;;;;;;;120.75;56.15;;;;;;;2.55;63.25;102046.73;1697372;84;21339;-54
2021/10/26 19:56:51;;;;;;;103.42;48.08;;;;;;;2.54;63.22;102047.20;1697185;84;21407;-53
2021/10/26 19:59:59;;;;;;;113.03;51.77;;;;;;;2.53;63.23;102043.23;1698237;80;21949;-55
2021/10/26 20:03:07;;;;;;;117.30;50.10;;;;;;;2.50;63.29;102044.28;1697384;84;21236;-54
2021/10/26 20:06:13;;;;;;;104.92;47.55;;;;;;;2.51;63.27;102046.48;1751171;82;21410;-55
2021/10/26 20:09:20;;;;;;;102.45;47.15;;;;;;;2.48;63.22;102046.66;1751342;82;21360;-55
2021/10/26 20:12:29;;;;;;;86.28;41.48;;;;;;;2.48;63.19;102031.79;1751279;82;21831;-54